Cannon Air Force Base
KCVS : now visible

Airfield :











YOU CAN JOIN US ON...

 
LOGIN :

Register | Disclaimer

   EN    FR    IT 

 









Legend :    VFR   Marginal VFR   IFR   Intensive IFR   Very Intensive IFR
Visi :
Ceiling :
>= 8 km
>= 3000ft
5 to 8 km
1000 to 3000 ft
1500m to 5 km
500 to 1000 ft
800 to 1500m
200 to 500 ft
< 800m
< 200 ft
Symbols :   Thunderstorms  Fog  Heavy snow  Heavy precipitations  Wind > 20 kt






- Airport Elevation : 4295 ft


KCVS - Cannon Air Force Base

CURRENT METAR :
  • 200758Z AUTO 24009KT 10SM CLR 20/M11 A2958 RMK AO2 SLP946 T02001114 $

EXPIRED METARs :
  • 200658Z AUTO 24010KT 10SM CLR 21/M12 A2959 RMK AO2 SLP949 T02131116 403550140 $
  • 200558Z AUTO 25007KT 10SM CLR 20/M11 A2960 RMK AO2 SLP955 T01991115 10345 20199 50003 $

TAF TAF KCVS
Valid from the 20 at 02:00 until the 21 at 08:00 UTC


200200Z 2002/2108 24015KT 9999 SKC QNH2959INS
BECMG 2004/2005 24010KT 9999 SKC WS020/24040KT QNH2959INS
BECMG 2007/2008 25010KT 9999 NSW SKC QNH2959INS
BECMG 2014/2015 26015G25KT 9999 SKC QNH2954INS
BECMG 2102/2103 20015G20KT 9999 SKC QNH2961INS TX37/2021Z TN20/2012Z
KZAB FIR / North America



MET'MAP, your aeronautical weather chart ! - Copyright ORBIFLY December 2007 - Disclaimer

ORBIFLY MET'MAP TEAM :

Programming & Development : Alexandra Zaïnal
Original concept : Baudouin d'Aumeries
Technical & hardware support : Manuel Goepfert
Assistance : Marc-Olivier Méhu

Contact : metmap@orbifly.com




SOURCES & CREDITS :

   NOAA       Earth
Advisory